DRI-NNSC Building Weather observations

Data are for 10 minute period ending at time listed.
 Day   Time   Solar   Ave.   Ave.  Ave.  Vector  Max.   Baro.   Total    
  of    of     Rad.   Air    Rel.  Wind   Wind   Wind  Press.  Precip.   
Year   Day            Temp.  Hum.  Speed  Dir.   Gust                    
2016   (PST)  Kw/m2    F      %     mph   deg.    mph    mb.     in.     
-------------------------------------------------------------------------
 338   16:30   0.02   47.2     0    1.3   196      2   854.9    0.00 
 338   16:40   0.01   45.7     0    0.7   200      1   854.9    0.00 
 338   16:50   0.00   45.1     0    0.5   219      1   855.0    0.00 
 338   17:00   0.00   44.5     0    0.6   290      1   855.0    0.00 
 338   17:10   0.00   44.4     0    1.4   332      2   855.1    0.00 
 338   17:20   0.00   44.6     0    1.8   339      3   855.0    0.00 
 338   17:30   0.00   44.6     0    0.5   319      1   855.0    0.00 
 338   17:40   0.00   44.7     0    1.1   292      2   855.0    0.00 
 338   17:50   0.00   44.7     0    1.7   306      2   854.9    0.00 
 338   18:00   0.00   44.7     0    1.1   299      2   854.9    0.00 
 338   18:10   0.00   44.1     0    0.0   276      1   854.9    0.00 
 338   18:20   0.00   43.5     0    0.0     0      0   854.9    0.00 
 338   18:30   0.00   42.9     0    0.3   201      1   854.9    0.00 
 338   18:40   0.00   42.7     0    0.9   149      3   855.0    0.00 
 338   18:50   0.00   42.2     0    2.2   106      3   855.0    0.00 
 338   19:00   0.00   41.7     0    1.6   106      3   854.9    0.00 
 338   19:10   0.00   41.8     0    2.0    76      3   854.9    0.00 
 338   19:20   0.00   42.2     0    3.4    60      5   854.9    0.00 
 338   19:30   0.00   42.0     0    3.9    53      5   854.9    0.00 
 338   19:40   0.00   42.0     0    2.8    59      4   854.9    0.00 
 338   19:50   0.00   41.5     0    2.3    62      3   854.9    0.00 
 338   20:00   0.00   40.7     0    0.8   120      2   854.8    0.00 
 338   20:10   0.00   39.3     0    1.5    52      4   854.9    0.00 
 338   20:20   0.00   39.3     0    2.3    60      4   854.8    0.00 
 338   20:30   0.00   39.6     0    0.5    98      2   854.7    0.00 
 338   20:40   0.00   40.0     0    1.5    62      3   854.7    0.00 
 338   20:50   0.00   39.6     0    2.8    52      3   854.7    0.00 
 338   21:00   0.00   39.8     0    2.4    53      4   854.9    0.00 
 338   21:10   0.00   38.5     0    1.7    64      3   854.8    0.00 
 338   21:20   0.00   40.0     0    2.5    73      4   854.8    0.00 
 338   21:30   0.00   39.7     0    2.5    53      4   854.9    0.00 
 338   21:40   0.00   38.8     0    0.4    80      2   855.0    0.00 
 338   21:50   0.00   38.2     0    0.2   275      1   854.9    0.00 
 338   22:00   0.00   38.9     0    0.0     0      0   854.8    0.00 
 338   22:10   0.00   39.1     0    0.2    73      1   854.8    0.00 
 338   22:20   0.00   38.7     0    1.0   249      2   854.7    0.00 
 338   22:30   0.00   38.2     0    3.1   330      5   854.7    0.00 
 338   22:40   0.00   38.9     0    2.4   348      4   854.7    0.00 
 338   22:50   0.00   37.9     0    0.3    86      1   854.7    0.00 
 338   23:00   0.00   36.4     0    1.0   251      4   854.7    0.00 
 338   23:10   0.00   36.0     0    3.2   306      5   854.8    0.00 
 338   23:20   0.00   36.0     0    2.6   318      4   854.7    0.00 
 338   23:30   0.00   36.6     0    2.1   317      4   854.7    0.00 
 338   23:40   0.00   37.4     0    1.1   211      2   854.6    0.00 
 338   23:50   0.00   36.3     0    1.9   178      4   854.4    0.00 
 339    0:00   0.00   34.6     0    0.7   101      2   854.3    0.00 
 339    0:10   0.00   34.7     0    2.3    89      3   854.2    0.00 
 339    0:20   0.00   34.8     0    2.1    68      3   854.2    0.00 
 339    0:30   0.00   34.5     0    2.3    54      3   854.2    0.00 
 339    0:40   0.00   34.3     0    0.3   146      1   854.0    0.00 
 339    0:50   0.00   34.9     0    1.5    64      2   854.0    0.00 
 339    1:00   0.00   35.0     0    1.1    60      2   853.9    0.00 
 339    1:10   0.00   34.8     0    3.8    55      4   853.8    0.00 
 339    1:20   0.00   34.6     0    2.4    49      4   853.9    0.00 
 339    1:30   0.00   34.9     0    1.1    15      2   854.0    0.00 
 339    1:40   0.00   35.6     0    0.5   101      2   853.8    0.00 
 339    1:50   0.00   35.4     0    0.9   104      2   853.7    0.00 
 339    2:00   0.00   34.9     0    0.4   165      2   853.7    0.00 
 339    2:10   0.00   35.0     0    0.5   184      2   853.6    0.00 
 339    2:20   0.00   35.1     0    0.4   114      1   853.5    0.00 
 339    2:30   0.00   34.5     0    1.5   327      3   853.5    0.00 
 339    2:40   0.00   34.4     0    3.0   322      4   853.4    0.00 
 339    2:50   0.00   34.9     0    2.9   328      5   853.3    0.00 
 339    3:00   0.00   36.4     0    1.8   345      4   853.3    0.00 
 339    3:10   0.00   35.6     0    1.0   104      3   853.1    0.00 
 339    3:20   0.00   33.7     0    0.6   168      2   852.9    0.00 
 339    3:30   0.00   33.2     0    1.2    99      2   852.7    0.00 
 339    3:40   0.00   32.7     0    0.7   154      2   852.7    0.00 
 339    3:50   0.00   31.9     0    0.7    23      2   852.7    0.00 
 339    4:00   0.00   32.6     0    1.4    13      2   852.7    0.00 
 339    4:10   0.00   32.9     0    1.5   327      3   852.6    0.00 
 339    4:20   0.00   33.8     0    1.9   288      3   852.4    0.00 
 339    4:30   0.00   33.1     0    1.9   259      3   852.3    0.00 
 339    4:40   0.00   32.7     0    0.4   284      2   852.1    0.00 
 339    4:50   0.00   33.1     0    0.1   108      1   852.0    0.00 
 339    5:00   0.00   33.2     0    0.3   142      1   852.1    0.00 
 339    5:10   0.00   32.7     0    0.7   178      3   852.0    0.00 
 339    5:20   0.00   32.6     0    1.2   236      2   852.1    0.00 
 339    5:30   0.00   32.7     0    1.2   267      2   851.9    0.00 
 339    5:40   0.00   32.5     0    0.9   205      3   851.8    0.00 
 339    5:50   0.00   32.2     0    1.2   125      2   851.8    0.00 
 339    6:00   0.00   31.5     0    3.4    60      5   851.7    0.00 
 339    6:10   0.00   31.8     0    2.2    30      5   851.7    0.00 
 339    6:20   0.00   33.2     0    1.5   312      3   851.8    0.00 
 339    6:30   0.00   33.7     0    0.4   186      1   851.7    0.00 
 339    6:40   0.00   33.2     0    0.2   315      2   851.7    0.00 
 339    6:50   0.00   33.3     0    2.2   318      4   851.9    0.00 
 339    7:00   0.00   33.5     0    3.5   330      6   852.1    0.00 
 339    7:10   0.01   34.3     0    2.9   323      4   852.0    0.00 
 339    7:20   0.01   33.9     0    4.0    91      6   851.9    0.00 
 339    7:30   0.01   33.8     0    3.0   118      5   851.9    0.00 
 339    7:40   0.02   32.7     0    1.4   155      3   852.0    0.00 
 339    7:50   0.04   32.4     0    0.6   189      3   852.1    0.00 
 339    8:00   0.06   32.8     0    1.2   280      3   852.1    0.00 
 339    8:10   0.09   34.1     0    0.3   240      1   852.2    0.00 
 339    8:20   0.10   35.0     0    1.3   232      3   852.3    0.00 
 339    8:30   0.11   34.4     0    1.3   253      3   852.2    0.00 
 339    8:40   0.14   34.7     0    1.9   282      4   852.1    0.00 
 339    8:50   0.20   35.1     0    1.5    87      5   852.0    0.00 
 339    9:00   0.24   33.0     0    2.3    80      4   852.0    0.00 
 339    9:10   0.29   34.6     0    1.7    92      4   852.0    0.00 
 339    9:20   0.22   36.4     0    1.0   192      3   852.0    0.00 
 339    9:30   0.19   36.4     0    1.2   217      3   851.8    0.00 
 339    9:40   0.16   37.1     0    1.0   229      3   851.8    0.00 
 339    9:50   0.14   37.7     0    1.6   265      4   851.7    0.00 
 339   10:00   0.16   38.2     0    2.9   285      6   851.7    0.00 
 339   10:10   0.16   38.7     0    2.2    50      4   851.7    0.00 
 339   10:20   0.14   39.3     0    1.8   350      4   851.5    0.00 
 339   10:30   0.12   41.1     0    3.5   144      6   851.5    0.00 
 339   10:40   0.13   40.5     0    2.2   106      5   851.3    0.00 
 339   10:50   0.18   44.2     0    4.4   175     10   851.1    0.00 
 339   11:00   0.20   41.4     0    3.0   148      9   850.9    0.00 
 339   11:10   0.23   46.0     0    2.6   164      7   850.7    0.00 
 339   11:20   0.26   47.0     0    3.2   169     10   850.5    0.00 
 339   11:30   0.23   47.2     0    3.3   196     11   850.4    0.00 
 339   11:40   0.30   49.7     0    3.0   164      8   850.4    0.00 
 339   11:50   0.41   52.4     0    4.7   171     12   850.1    0.00 
 339   12:00   0.46   53.9     0    5.0   180     16   849.7    0.00 
 339   12:10   0.42   54.4     0    5.8   179     10   849.6    0.00 
 339   12:20   0.47   55.0     0    4.2   164     10   849.4    0.00 
 339   12:30   0.42   55.0     0    4.5   167     11   849.3    0.00 
 339   12:40   0.29   54.1     0    4.5   170     10   849.2    0.00 
 339   12:50   0.33   53.5     0    5.0   200     15   849.1    0.00 
 339   13:00   0.41   55.9     0    3.6   209     11   848.9    0.00 
 339   13:10   0.39   55.6     0    5.2   181     10   848.8    0.00 
 339   13:20   0.38   56.2     0    5.8   211     15   848.8    0.00 
 339   13:30   0.34   56.7     0    8.7   220     16   848.5    0.00 
 339   13:40   0.36   56.7     0   12.6   225     22   848.2    0.00 
 339   13:50   0.30   56.9     0   10.2   240     18   848.1    0.00 
 339   14:00   0.33   56.9     0   11.7   238     21   848.0    0.00 
 339   14:10   0.29   57.1     0   10.2   256     21   847.9    0.00 
 339   14:20   0.25   57.0     0   11.3   253     22   847.9    0.00 
 339   14:30   0.25   56.9     0   11.3   254     23   847.8    0.00 
 339   14:40   0.15   56.3     0   11.8   258     24   847.8    0.00 
 339   14:50   0.12   55.7     0   13.2   262     25   847.7    0.00 
 339   15:00   0.11   55.6     0   10.4   257     22   847.5    0.00 
 339   15:10   0.09   55.1     0   12.3   264     24   847.5    0.00 
 339   15:20   0.09   54.5     0   13.7   260     24   847.5    0.00 
 339   15:30   0.06   53.9     0   13.7   260     25   847.5    0.00 
 339   15:40   0.05   53.6     0   12.2   257     26   847.4    0.00 
 339   15:50   0.05   53.2     0   10.5   252     25   847.4    0.00 
 339   16:00   0.05   52.8     0   13.4   253     26   847.4    0.00 
 339   16:10   0.03   52.2     0   12.1   260     23   847.3    0.00 
 339   16:20   0.01   51.7     0   13.3   257     28   847.3    0.00 

Return to NNSC graphs page.


Western Regional Climate Center,wrcc@dri.edu